createdAt,value
2017-02-28T01:01:36.858Z,0
2017-02-28T01:02:17.177Z,0
2017-02-28T01:03:17.488Z,0
2017-02-28T01:04:17.830Z,0
2017-02-28T01:05:17.559Z,0
2017-02-28T01:06:17.297Z,0
2017-02-28T01:07:17.241Z,0
2017-02-28T01:08:17.176Z,0
2017-02-28T01:09:17.124Z,0
2017-02-28T01:10:16.290Z,0
2017-02-28T01:11:17.402Z,0
2017-02-28T01:12:16.553Z,0
2017-02-28T01:13:16.874Z,0
2017-02-28T01:14:16.837Z,0
2017-02-28T01:15:16.375Z,0
2017-02-28T01:16:17.258Z,0
2017-02-28T01:17:15.851Z,0
2017-02-28T01:18:16.568Z,0
2017-02-28T01:19:16.886Z,0
2017-02-28T01:20:16.452Z,0
2017-02-28T01:21:16.763Z,0
2017-02-28T01:22:16.311Z,0
2017-02-28T01:23:16.637Z,0
2017-02-28T01:24:16.186Z,0
2017-02-28T01:25:16.147Z,0
2017-02-28T01:26:16.463Z,0
2017-02-28T01:27:16.012Z,0
2017-02-28T01:28:16.327Z,0
2017-02-28T01:29:15.518Z,0
2017-02-28T01:30:16.212Z,0
2017-02-28T01:31:15.754Z,0
2017-02-28T01:32:15.301Z,0
2017-02-28T01:33:15.637Z,0
2017-02-28T01:34:15.959Z,0
2017-02-28T01:35:15.501Z,0
2017-02-28T01:36:15.942Z,0
2017-02-28T01:37:15.376Z,0
2017-02-28T01:38:14.938Z,0
2017-02-28T01:39:15.847Z,0
2017-02-28T01:40:15.678Z,0
2017-02-28T01:41:14.363Z,0
2017-02-28T01:42:15.083Z,0
2017-02-28T01:43:14.651Z,0
2017-02-28T01:44:15.049Z,0
2017-02-28T01:45:14.900Z,0
2017-02-28T01:46:14.631Z,0
2017-02-28T01:47:14.759Z,0
2017-02-28T01:48:14.441Z,0
2017-02-28T01:49:15.095Z,0
2017-02-28T01:50:14.590Z,0
2017-02-28T01:51:14.522Z,0
2017-02-28T01:52:14.470Z,0
2017-02-28T01:53:14.002Z,0
2017-02-28T01:54:13.956Z,0
2017-02-28T01:55:14.283Z,0
2017-02-28T01:56:14.587Z,0
2017-02-28T01:57:14.141Z,0
2017-02-28T01:58:14.093Z,0
2017-02-28T01:59:14.686Z,0
2017-02-28T02:00:13.991Z,0
2017-02-28T02:01:13.887Z,0
2017-02-28T02:02:13.932Z,0
2017-02-28T02:03:14.152Z,0
2017-02-28T02:04:14.092Z,0
2017-02-28T02:05:13.649Z,0
2017-02-28T02:06:13.967Z,0
2017-02-28T02:07:13.667Z,0
2017-02-28T02:08:13.459Z,0
2017-02-28T02:09:13.415Z,0
2017-02-28T02:10:13.328Z,0
2017-02-28T02:11:13.281Z,0
2017-02-28T02:12:13.221Z,0
2017-02-28T02:13:12.845Z,0
2017-02-28T02:14:13.091Z,0
2017-02-28T02:15:13.020Z,0
2017-02-28T02:16:12.982Z,0
2017-02-28T02:17:12.897Z,0
2017-02-28T02:18:12.517Z,0
2017-02-28T02:19:12.414Z,0
2017-02-28T02:20:12.391Z,0
2017-02-28T02:21:13.041Z,0
2017-02-28T02:22:13.003Z,0
2017-02-28T02:23:12.130Z,0
2017-02-28T02:24:12.678Z,0
2017-02-28T02:25:12.417Z,0
2017-02-28T02:26:12.331Z,0
2017-02-28T02:27:12.672Z,0
2017-02-28T02:28:12.893Z,0
2017-02-28T02:29:12.249Z,0
2017-02-28T02:30:11.711Z,0
2017-02-28T02:31:11.664Z,0
2017-02-28T02:32:12.388Z,0
2017-02-28T02:33:12.304Z,0
2017-02-28T02:34:11.862Z,0
2017-02-28T02:35:11.400Z,0
2017-02-28T02:36:11.729Z,0
2017-02-28T02:37:12.107Z,0
2017-02-28T02:38:11.596Z,0
2017-02-28T02:39:11.144Z,0
2017-02-28T02:40:11.899Z,0
2017-02-28T02:41:11.821Z,0
2017-02-28T02:42:10.984Z,0
2017-02-28T02:43:10.945Z,0
2017-02-28T02:44:10.836Z,0
2017-02-28T02:45:11.161Z,0
2017-02-28T02:46:11.116Z,0
2017-02-28T02:47:11.079Z,0
2017-02-28T02:48:11.009Z,0
2017-02-28T02:49:10.910Z,0
2017-02-28T02:50:10.877Z,0
2017-02-28T02:51:10.784Z,0
2017-02-28T02:52:10.458Z,0
2017-02-28T02:53:10.937Z,0
2017-02-28T02:54:10.236Z,0
2017-02-28T02:55:10.549Z,0
2017-02-28T02:56:10.477Z,0
2017-02-28T02:57:10.032Z,0
2017-02-28T02:58:10.353Z,0
2017-02-28T02:59:10.297Z,0
2017-02-28T03:00:09.846Z,0
2017-02-28T03:01:10.183Z,0
2017-02-28T03:02:10.514Z,0
2017-02-28T03:03:10.452Z,0
2017-02-28T03:04:09.613Z,0
2017-02-28T03:05:09.924Z,0
2017-02-28T03:06:10.268Z,0
2017-02-28T03:07:09.804Z,0
2017-02-28T03:08:09.731Z,0
2017-02-28T03:09:10.053Z,0
2017-02-28T03:10:09.249Z,0
2017-02-28T03:11:08.780Z,0
2017-02-28T03:12:09.486Z,0
2017-02-28T03:13:09.447Z,0
2017-02-28T03:14:09.441Z,0
2017-02-28T03:15:09.576Z,0
2017-02-28T03:16:09.268Z,0
2017-02-28T03:17:09.180Z,0
2017-02-28T03:18:09.119Z,0
2017-02-28T03:19:09.464Z,0
2017-02-28T03:20:08.600Z,0
2017-02-28T03:21:08.948Z,0
2017-02-28T03:22:08.863Z,0
2017-02-28T03:23:08.468Z,0
2017-02-28T03:24:08.746Z,0
2017-02-28T03:25:08.719Z,0
2017-02-28T03:26:08.235Z,0
2017-02-28T03:27:08.554Z,0
2017-02-28T03:28:08.875Z,0
2017-02-28T03:29:08.433Z,0
2017-02-28T03:30:07.993Z,0
2017-02-28T03:31:08.319Z,0
2017-02-28T03:32:08.255Z,0
2017-02-28T03:33:08.184Z,0
2017-02-28T03:34:08.122Z,0
2017-02-28T03:35:08.440Z,0
2017-02-28T03:36:07.641Z,0
2017-02-28T03:37:07.566Z,0
2017-02-28T03:38:07.486Z,0
2017-02-28T03:39:07.820Z,0
2017-02-28T03:40:07.767Z,0
2017-02-28T03:41:08.076Z,0
2017-02-28T03:42:08.011Z,0
2017-02-28T03:43:07.856Z,0
2017-02-28T03:44:07.568Z,0
2017-02-28T03:45:07.073Z,0
2017-02-28T03:46:07.016Z,0
2017-02-28T03:47:07.336Z,0
2017-02-28T03:48:06.961Z,0
2017-02-28T03:49:07.229Z,0
2017-02-28T03:50:07.539Z,0
2017-02-28T03:51:07.461Z,0
2017-02-28T03:52:07.017Z,0
2017-02-28T03:53:06.950Z,0
2017-02-28T03:54:07.277Z,0
2017-02-28T03:55:06.434Z,0
2017-02-28T03:56:07.031Z,0
2017-02-28T03:57:07.080Z,0
2017-02-28T03:58:06.253Z,0
2017-02-28T03:59:07.285Z,0
2017-02-28T04:00:06.140Z,0
2017-02-28T04:01:06.840Z,0
2017-02-28T04:02:06.781Z,0
2017-02-28T04:03:06.842Z,0
2017-02-28T04:04:06.769Z,0
2017-02-28T04:05:06.639Z,0
2017-02-28T04:06:06.141Z,0
2017-02-28T04:07:06.091Z,0
2017-02-28T04:08:06.406Z,0
2017-02-28T04:09:05.967Z,0
2017-02-28T04:10:05.955Z,0
2017-02-28T04:11:06.235Z,0
2017-02-28T04:12:05.774Z,0
2017-02-28T04:13:06.117Z,0
2017-02-28T04:14:06.029Z,0
2017-02-28T04:15:06.122Z,0
2017-02-28T04:16:05.908Z,0
2017-02-28T04:17:05.730Z,0
2017-02-28T04:18:05.414Z,0
2017-02-28T04:19:04.976Z,0
2017-02-28T04:20:05.286Z,0
2017-02-28T04:21:05.233Z,0
2017-02-28T04:22:04.861Z,0
2017-02-28T04:23:05.503Z,0
2017-02-28T04:24:05.411Z,0
2017-02-28T04:25:04.579Z,0
2017-02-28T04:26:05.281Z,0
2017-02-28T04:27:05.236Z,0
2017-02-28T04:28:04.771Z,0
2017-02-28T04:29:05.099Z,0
2017-02-28T04:30:05.038Z,0
2017-02-28T04:31:04.976Z,0
2017-02-28T04:32:03.762Z,0
2017-02-28T04:33:05.142Z,0
2017-02-28T04:34:04.418Z,0
2017-02-28T04:35:04.341Z,0
2017-02-28T04:36:04.682Z,0
2017-02-28T04:37:04.223Z,0
2017-02-28T04:38:04.559Z,0
2017-02-28T04:39:04.127Z,0
2017-02-28T04:40:04.437Z,0
2017-02-28T04:41:04.436Z,0
2017-02-28T04:42:04.319Z,0
2017-02-28T04:43:03.483Z,0
2017-02-28T04:44:04.183Z,0
2017-02-28T04:45:03.724Z,0
2017-02-28T04:46:02.981Z,0
2017-02-28T04:47:03.657Z,0
2017-02-28T04:48:03.533Z,0
2017-02-28T04:49:03.479Z,0
2017-02-28T04:50:03.455Z,0
2017-02-28T04:51:03.727Z,0
2017-02-28T04:52:03.306Z,0
2017-02-28T04:53:03.624Z,0
2017-02-28T04:54:03.554Z,0
2017-02-28T04:55:03.107Z,0
2017-02-28T04:56:03.418Z,0
2017-02-28T04:57:02.984Z,0
2017-02-28T04:58:02.931Z,0
2017-02-28T04:59:02.871Z,0
2017-02-28T05:00:02.882Z,0
2017-02-28T05:01:02.746Z,0
2017-02-28T05:02:07.619Z,0
2017-02-28T05:03:02.605Z,0
2017-02-28T05:04:03.198Z,0
2017-02-28T05:05:02.480Z,0
2017-02-28T05:06:02.806Z,0
2017-02-28T05:07:02.367Z,0
2017-02-28T05:08:02.693Z,0
2017-02-28T05:09:02.262Z,0
2017-02-28T05:10:02.561Z,0
2017-02-28T05:11:02.135Z,0
2017-02-28T05:12:02.060Z,0
2017-02-28T05:13:01.984Z,0
2017-02-28T05:14:02.321Z,0
2017-02-28T05:15:01.871Z,0
2017-02-28T05:16:01.415Z,0
2017-02-28T05:17:02.153Z,0
2017-02-28T05:18:02.092Z,0
2017-02-28T05:19:01.616Z,0
2017-02-28T05:20:01.957Z,0
2017-02-28T05:21:01.497Z,0
2017-02-28T05:22:01.438Z,0
2017-02-28T05:23:01.769Z,0
2017-02-28T05:24:01.302Z,0
2017-02-28T05:25:00.924Z,0
2017-02-28T05:26:01.561Z,0
2017-02-28T05:27:01.150Z,0
2017-02-28T05:28:01.440Z,0
2017-02-28T05:29:01.387Z,0
2017-02-28T05:30:01.335Z,0
2017-02-28T05:31:00.875Z,0
2017-02-28T05:32:00.798Z,0
2017-02-28T05:33:00.752Z,0
2017-02-28T05:34:01.071Z,0
2017-02-28T05:35:00.632Z,0
2017-02-28T05:36:00.971Z,0
2017-02-28T05:37:00.121Z,0
2017-02-28T05:38:00.834Z,0
2017-02-28T05:39:00.368Z,0
2017-02-28T05:40:00.329Z,0
2017-02-28T05:41:00.638Z,0
2017-02-28T05:42:00.205Z,0
2017-02-28T05:43:00.150Z,0
2017-02-28T05:44:00.463Z,0
2017-02-28T05:45:00.384Z,0
2017-02-28T05:45:59.954Z,0
2017-02-28T05:46:59.876Z,0
2017-02-28T05:47:59.852Z,0
2017-02-28T05:48:59.761Z,0
2017-02-28T05:49:59.314Z,0
2017-02-28T05:50:59.648Z,0
2017-02-28T05:51:59.974Z,0
2017-02-28T05:53:00.172Z,0
2017-02-28T05:53:59.832Z,0
2017-02-28T05:54:59.383Z,0
2017-02-28T05:55:59.914Z,0
2017-02-28T05:56:59.558Z,0
2017-02-28T05:57:59.221Z,0
2017-02-28T05:58:59.523Z,0
2017-02-28T05:59:58.702Z,0
2017-02-28T06:00:59.029Z,0
2017-02-28T06:01:58.583Z,0
2017-02-28T06:02:59.270Z,0
2017-02-28T06:03:59.215Z,0
2017-02-28T06:04:59.151Z,0
2017-02-28T06:05:58.332Z,0
2017-02-28T06:06:58.265Z,0
2017-02-28T06:07:58.204Z,0
2017-02-28T06:08:58.533Z,0
2017-02-28T06:09:58.079Z,0
2017-02-28T06:10:57.616Z,0
2017-02-28T06:11:58.345Z,0
2017-02-28T06:12:58.258Z,0
2017-02-28T06:13:58.202Z,0
2017-02-28T06:14:58.135Z,0
2017-02-28T06:15:57.696Z,0
2017-02-28T06:16:58.404Z,0
2017-02-28T06:17:57.969Z,0
2017-02-28T06:18:57.921Z,0
2017-02-28T06:19:58.220Z,0
2017-02-28T06:20:58.177Z,0
2017-02-28T06:21:58.087Z,0
2017-02-28T06:22:58.066Z,0
2017-02-28T06:23:57.974Z,4
2017-02-28T06:24:57.528Z,4
2017-02-28T06:25:57.450Z,4
2017-02-28T06:26:57.791Z,4
2017-02-28T06:27:57.333Z,4
2017-02-28T06:28:57.281Z,4
2017-02-28T06:29:57.220Z,4
2017-02-28T06:30:57.543Z,4
2017-02-28T06:31:57.141Z,4
2017-02-28T06:32:57.051Z,4
2017-02-28T06:33:57.481Z,4
2017-02-28T06:34:57.286Z,4
2017-02-28T06:35:56.856Z,4
2017-02-28T06:36:56.676Z,4
2017-02-28T06:37:57.111Z,4
2017-02-28T06:38:56.677Z,4
2017-02-28T06:39:56.976Z,4
2017-02-28T06:40:56.532Z,4
2017-02-28T06:41:56.461Z,4
2017-02-28T06:42:56.405Z,4
2017-02-28T06:43:56.349Z,4
2017-02-28T06:44:55.894Z,4
2017-02-28T06:45:56.249Z,4
2017-02-28T06:46:56.166Z,4
2017-02-28T06:47:56.480Z,4
2017-02-28T06:48:55.703Z,4
2017-02-28T06:49:56.374Z,4
2017-02-28T06:50:55.908Z,4
2017-02-28T06:51:56.242Z,4
2017-02-28T06:52:56.072Z,4
2017-02-28T06:53:56.111Z,4
2017-02-28T06:54:55.655Z,4
2017-02-28T06:55:55.206Z,4
2017-02-28T06:56:55.916Z,4
2017-02-28T06:57:55.879Z,4
2017-02-28T06:58:56.089Z,4
2017-02-28T06:59:55.367Z,4
2017-02-28T07:00:55.682Z,4
2017-02-28T07:01:54.846Z,4
2017-02-28T07:02:55.187Z,4
2017-02-28T07:03:54.726Z,4
2017-02-28T07:04:54.656Z,4
2017-02-28T07:05:54.976Z,4
2017-02-28T07:06:55.335Z,4
2017-02-28T07:07:54.485Z,4
2017-02-28T07:08:55.176Z,4
2017-02-28T07:09:54.723Z,4
2017-02-28T07:10:55.373Z,4
2017-02-28T07:11:53.827Z,4
2017-02-28T07:12:54.940Z,4
2017-02-28T07:13:54.863Z,4
2017-02-28T07:14:54.413Z,4
2017-02-28T07:15:53.969Z,4
2017-02-28T07:16:54.293Z,4
2017-02-28T07:17:54.606Z,4
2017-02-28T07:18:54.226Z,4
2017-02-28T07:19:53.737Z,4
2017-02-28T07:20:54.055Z,4
2017-02-28T07:21:53.990Z,4
2017-02-28T07:22:53.929Z,8
2017-02-28T07:23:53.480Z,8
2017-02-28T07:24:53.046Z,8
2017-02-28T07:25:54.126Z,8
2017-02-28T07:26:53.683Z,8
2017-02-28T07:27:54.009Z,8
2017-02-28T07:28:53.553Z,8
2017-02-28T07:29:54.077Z,8
2017-02-28T07:30:53.441Z,8
2017-02-28T07:31:52.989Z,4
2017-02-28T07:32:53.312Z,4
2017-02-28T07:33:52.877Z,4
2017-02-28T07:34:52.412Z,4
2017-02-28T07:35:53.127Z,8
2017-02-28T07:36:53.432Z,8
2017-02-28T07:37:53.381Z,8
2017-02-28T07:38:53.308Z,8
2017-02-28T07:39:52.527Z,8
2017-02-28T07:40:52.431Z,8
2017-02-28T07:41:52.741Z,8
2017-02-28T07:42:52.311Z,8
2017-02-28T07:43:52.257Z,8
2017-02-28T07:44:52.559Z,8
2017-02-28T07:45:52.120Z,8
2017-02-28T07:46:52.478Z,8
2017-02-28T07:47:52.001Z,12
2017-02-28T07:48:52.714Z,12
2017-02-28T07:49:52.640Z,12
2017-02-28T07:50:52.182Z,12
2017-02-28T07:51:52.124Z,12
2017-02-28T07:52:52.058Z,12
2017-02-28T07:53:52.004Z,12
2017-02-28T07:54:52.318Z,8
2017-02-28T07:55:52.301Z,12
2017-02-28T07:56:51.053Z,8
2017-02-28T07:57:52.031Z,8
2017-02-28T07:58:52.152Z,8
2017-02-28T07:59:52.008Z,8
2017-02-28T08:00:51.829Z,8
2017-02-28T08:01:51.547Z,8
2017-02-28T08:02:51.568Z,8
2017-02-28T08:03:51.777Z,8
2017-02-28T08:04:51.745Z,12
2017-02-28T08:05:51.532Z,12
2017-02-28T08:06:51.610Z,12
2017-02-28T08:07:51.129Z,8
2017-02-28T08:08:50.696Z,8
2017-02-28T08:09:51.395Z,8
2017-02-28T08:10:51.336Z,8
2017-02-28T08:11:50.896Z,8
2017-02-28T08:12:50.443Z,12
2017-02-28T08:13:50.825Z,12
2017-02-28T08:14:50.752Z,12
2017-02-28T08:15:50.642Z,12
2017-02-28T08:16:50.945Z,8
2017-02-28T08:17:50.132Z,12
2017-02-28T08:18:50.855Z,12
2017-02-28T08:19:50.381Z,8
2017-02-28T08:20:50.338Z,8
2017-02-28T08:21:50.638Z,12
2017-02-28T08:22:50.201Z,12
2017-02-28T08:23:50.516Z,12
2017-02-28T08:24:50.084Z,12
2017-02-28T08:25:50.005Z,12
2017-02-28T08:26:50.348Z,16
2017-02-28T08:27:49.885Z,16
2017-02-28T08:28:49.439Z,12
2017-02-28T08:29:50.157Z,16
2017-02-28T08:30:49.727Z,16
2017-02-28T08:31:50.019Z,12
2017-02-28T08:32:49.584Z,16
2017-02-28T08:33:49.529Z,16
2017-02-28T08:34:49.739Z,12
2017-02-28T08:35:49.006Z,12
2017-02-28T08:36:49.322Z,16
2017-02-28T08:37:48.883Z,16
2017-02-28T08:38:49.208Z,16
2017-02-28T08:39:49.149Z,16
2017-02-28T08:40:48.685Z,16
2017-02-28T08:41:49.430Z,12
2017-02-28T08:42:49.538Z,16
2017-02-28T08:43:49.309Z,16
2017-02-28T08:44:48.843Z,12
2017-02-28T08:45:49.182Z,12
2017-02-28T08:46:48.751Z,12
2017-02-28T08:47:48.669Z,16
2017-02-28T08:48:48.956Z,16
2017-02-28T08:49:48.903Z,20
2017-02-28T08:50:48.844Z,16
2017-02-28T08:51:48.076Z,16
2017-02-28T08:52:48.735Z,16
2017-02-28T08:53:47.873Z,16
2017-02-28T08:54:48.201Z,20
2017-02-28T08:55:49.020Z,20
2017-02-28T08:56:47.689Z,16
2017-02-28T08:57:47.633Z,16
2017-02-28T08:58:48.027Z,20
2017-02-28T08:59:47.902Z,20
2017-02-28T12:51:15.475Z,176
2017-02-28T12:51:25.999Z,176
2017-02-28T12:52:25.976Z,188
2017-02-28T12:53:25.855Z,192
2017-02-28T12:55:02.493Z,180
2017-02-28T12:56:02.507Z,176
2017-02-28T12:57:02.093Z,32
2017-02-28T12:58:01.663Z,28
2017-02-28T12:59:01.971Z,24
2017-02-28T13:00:01.959Z,28
2017-02-28T13:01:01.895Z,24
2017-02-28T13:02:01.800Z,24
2017-02-28T13:03:01.724Z,24
2017-02-28T13:04:01.297Z,24
2017-02-28T13:05:01.633Z,28
2017-02-28T13:06:01.546Z,36
2017-02-28T13:07:01.486Z,28
2017-02-28T13:08:01.435Z,40
2017-02-28T13:09:00.590Z,32
2017-02-28T13:10:00.923Z,36
2017-02-28T13:11:01.246Z,32
2017-02-28T13:12:01.217Z,24
2017-02-28T13:13:01.144Z,36
2017-02-28T13:14:00.667Z,20
2017-02-28T13:15:01.013Z,24
2017-02-28T13:16:00.516Z,20
2017-02-28T13:17:00.884Z,20
2017-02-28T13:18:00.830Z,20
2017-02-28T13:19:00.744Z,20
2017-02-28T13:20:00.687Z,24
2017-02-28T13:21:00.658Z,28
2017-02-28T13:22:00.767Z,24
2017-02-28T13:23:00.143Z,40
2017-02-28T13:24:00.248Z,28
2017-02-28T13:25:00.384Z,40
2017-02-28T13:26:00.556Z,136
2017-02-28T13:26:59.873Z,156
2017-02-28T13:28:00.203Z,164
2017-02-28T13:29:00.124Z,148
2017-02-28T13:30:00.064Z,144
2017-02-28T13:30:59.999Z,148
2017-02-28T13:31:59.949Z,148
2017-02-28T13:32:59.893Z,148
2017-02-28T13:33:59.053Z,148
2017-02-28T13:34:59.369Z,152
2017-02-28T13:35:59.304Z,148
2017-02-28T13:36:59.665Z,152
2017-02-28T13:37:59.186Z,148
2017-02-28T13:38:59.499Z,148
2017-02-28T13:39:59.473Z,148
2017-02-28T13:40:59.721Z,148
2017-02-28T13:41:59.326Z,148
2017-02-28T13:42:59.253Z,144
2017-02-28T13:43:59.207Z,152
2017-02-28T13:44:58.757Z,156
2017-02-28T13:45:59.161Z,156
2017-02-28T13:46:58.624Z,160
2017-02-28T13:47:58.963Z,152
2017-02-28T13:48:58.520Z,148
2017-02-28T13:49:58.841Z,156
2017-02-28T13:50:58.651Z,156
2017-02-28T13:51:57.936Z,144
2017-02-28T13:52:58.658Z,148
2017-02-28T13:53:58.575Z,144
2017-02-28T13:54:58.533Z,144
2017-02-28T13:55:58.085Z,144
2017-02-28T13:56:58.041Z,144
2017-02-28T13:57:58.332Z,144
2017-02-28T13:58:58.286Z,144
2017-02-28T13:59:58.212Z,148
2017-02-28T14:00:58.160Z,144
2017-02-28T14:01:58.091Z,144
2017-02-28T14:02:57.646Z,144
2017-02-28T14:03:57.965Z,144
2017-02-28T14:04:57.932Z,140
2017-02-28T14:05:57.938Z,144
2017-02-28T14:06:57.776Z,144
2017-02-28T14:07:57.710Z,144
2017-02-28T14:08:57.661Z,144
2017-02-28T14:09:57.212Z,144
2017-02-28T14:10:57.281Z,148
2017-02-28T14:11:57.495Z,144
2017-02-28T14:12:57.476Z,144
2017-02-28T14:13:57.416Z,148
2017-02-28T14:14:57.288Z,148
2017-02-28T14:15:57.321Z,148
2017-02-28T14:16:57.160Z,148
2017-02-28T14:17:57.133Z,144
2017-02-28T14:18:57.052Z,144
2017-02-28T14:19:56.983Z,144
2017-02-28T14:20:56.923Z,144
2017-02-28T14:21:56.851Z,148
2017-02-28T14:22:56.791Z,148
2017-02-28T14:23:56.750Z,156
2017-02-28T14:24:56.686Z,148
2017-02-28T14:25:56.629Z,148
2017-02-28T14:26:56.556Z,152
2017-02-28T14:27:56.500Z,160
2017-02-28T14:28:56.439Z,160
2017-02-28T14:29:55.996Z,156
2017-02-28T14:30:56.306Z,156
2017-02-28T14:31:56.248Z,152
2017-02-28T14:32:55.835Z,152
2017-02-28T14:33:55.765Z,148
2017-02-28T14:34:56.073Z,148
2017-02-28T14:35:55.622Z,144
2017-02-28T14:36:55.564Z,144
2017-02-28T14:37:55.519Z,144
2017-02-28T14:38:55.873Z,144
2017-02-28T14:39:55.399Z,144
2017-02-28T14:40:55.691Z,140
2017-02-28T14:41:55.632Z,144
2017-02-28T14:42:55.587Z,144
2017-02-28T14:43:55.519Z,144
2017-02-28T14:44:55.476Z,128
2017-02-28T14:45:55.389Z,144
2017-02-28T14:46:55.334Z,140
2017-02-28T14:47:55.286Z,140
2017-02-28T14:48:54.836Z,140
2017-02-28T14:49:55.190Z,140
2017-02-28T14:50:55.094Z,144
2017-02-28T14:51:55.046Z,144
2017-02-28T14:52:54.967Z,144
2017-02-28T14:53:54.903Z,144
2017-02-28T14:54:54.883Z,172
2017-02-28T14:55:54.802Z,28
2017-02-28T14:56:54.730Z,24
2017-02-28T14:57:54.668Z,24
2017-02-28T14:58:54.601Z,24
2017-02-28T14:59:54.193Z,20
2017-02-28T15:00:54.087Z,20
2017-02-28T15:01:54.419Z,16
2017-02-28T15:02:54.381Z,20
2017-02-28T15:03:54.303Z,16
2017-02-28T15:04:54.233Z,20
2017-02-28T15:05:54.168Z,20
2017-02-28T15:06:54.111Z,20
2017-02-28T15:07:54.046Z,20
2017-02-28T15:08:54.005Z,20
2017-02-28T15:09:53.950Z,24
2017-02-28T15:10:53.891Z,20
2017-02-28T15:11:53.897Z,24
2017-02-28T15:12:53.746Z,24
2017-02-28T15:13:53.674Z,24
2017-02-28T15:14:53.617Z,24
2017-02-28T15:15:53.553Z,24
2017-02-28T15:16:53.514Z,24
2017-02-28T15:17:53.432Z,20
2017-02-28T15:18:53.407Z,20
2017-02-28T15:19:53.321Z,20
2017-02-28T15:20:53.584Z,20
2017-02-28T15:21:53.181Z,20
2017-02-28T15:22:53.122Z,20
2017-02-28T15:23:53.086Z,20
2017-02-28T15:24:53.023Z,16
2017-02-28T15:25:53.427Z,16
2017-02-28T15:26:52.524Z,16
2017-02-28T15:27:52.445Z,20
2017-02-28T15:28:52.762Z,16
2017-02-28T15:29:52.305Z,16
2017-02-28T15:30:52.637Z,20
2017-02-28T15:31:52.609Z,16
2017-02-28T15:32:52.518Z,16
2017-02-28T15:33:51.683Z,20
2017-02-28T15:34:52.394Z,20
2017-02-28T15:35:52.323Z,16
2017-02-28T15:36:51.877Z,16
2017-02-28T15:37:52.251Z,16
2017-02-28T15:38:52.142Z,20
2017-02-28T15:39:52.084Z,16
2017-02-28T15:40:51.887Z,16
2017-02-28T15:41:51.986Z,16
2017-02-28T15:42:51.921Z,16
2017-02-28T15:43:51.828Z,16
2017-02-28T15:44:51.821Z,16
2017-02-28T15:45:51.886Z,12
2017-02-28T15:46:51.642Z,12
2017-02-28T15:47:51.603Z,12
2017-02-28T15:48:51.541Z,16
2017-02-28T15:49:51.116Z,16
2017-02-28T15:50:51.413Z,16
2017-02-28T15:51:50.967Z,16
2017-02-28T15:52:51.375Z,16
2017-02-28T15:53:51.282Z,12
2017-02-28T15:54:51.154Z,12
2017-02-28T15:55:50.716Z,12
2017-02-28T15:56:51.038Z,12
2017-02-28T15:57:50.981Z,12
2017-02-28T15:58:50.573Z,12
2017-02-28T15:59:50.852Z,12
2017-02-28T16:00:50.019Z,12
2017-02-28T16:01:50.746Z,12
2017-02-28T16:02:50.289Z,12
2017-02-28T16:03:50.611Z,12
2017-02-28T16:04:50.165Z,12
2017-02-28T16:05:50.092Z,12
2017-02-28T16:06:50.041Z,12
2017-02-28T16:07:49.970Z,12
2017-02-28T16:08:50.313Z,12
2017-02-28T16:09:50.245Z,12
2017-02-28T16:10:49.829Z,12
2017-02-28T16:11:49.774Z,12
2017-02-28T16:12:50.044Z,8
2017-02-28T16:13:49.977Z,8
2017-02-28T16:14:49.935Z,8
2017-02-28T16:15:49.860Z,8
2017-02-28T16:16:49.823Z,8
2017-02-28T16:17:49.734Z,8
2017-02-28T16:18:49.290Z,8
2017-02-28T16:19:49.621Z,8
2017-02-28T16:20:48.780Z,8
2017-02-28T16:21:49.510Z,8
2017-02-28T16:22:49.436Z,8
2017-02-28T16:23:49.371Z,8
2017-02-28T16:24:49.300Z,8
2017-02-28T16:25:49.250Z,8
2017-02-28T16:26:49.172Z,8
2017-02-28T16:27:48.729Z,8
2017-02-28T16:28:49.059Z,8
2017-02-28T16:29:49.005Z,8
2017-02-28T16:30:48.929Z,12
2017-02-28T16:31:48.878Z,12
2017-02-28T16:32:48.452Z,12
2017-02-28T16:33:48.755Z,12
2017-02-28T16:34:48.691Z,12
2017-02-28T16:35:48.632Z,12
2017-02-28T16:36:48.558Z,12
2017-02-28T16:37:48.506Z,8
2017-02-28T16:38:48.053Z,8
2017-02-28T16:39:48.377Z,8
2017-02-28T16:40:48.309Z,8
2017-02-28T16:41:47.903Z,8
2017-02-28T16:42:47.819Z,8
2017-02-28T16:43:48.124Z,8
2017-02-28T16:44:48.088Z,8
2017-02-28T16:45:48.012Z,8
2017-02-28T16:46:47.966Z,8
2017-02-28T16:47:47.885Z,8
2017-02-28T16:48:47.823Z,8
2017-02-28T16:49:47.405Z,8
2017-02-28T16:50:47.696Z,8
2017-02-28T16:51:47.640Z,8
2017-02-28T16:52:47.608Z,8
2017-02-28T16:53:47.508Z,8
2017-02-28T16:54:47.445Z,8
2017-02-28T16:55:47.007Z,8
2017-02-28T16:56:47.350Z,8
2017-02-28T16:57:47.261Z,8
2017-02-28T16:58:47.205Z,8
2017-02-28T16:59:47.154Z,8
2017-02-28T17:00:47.081Z,8
2017-02-28T17:01:47.065Z,8
2017-02-28T17:02:46.965Z,8
2017-02-28T17:03:46.893Z,8
2017-02-28T17:04:46.849Z,8
2017-02-28T17:05:46.770Z,8
2017-02-28T17:06:46.704Z,8
2017-02-28T17:07:46.656Z,8
2017-02-28T17:08:46.609Z,8
2017-02-28T17:09:46.526Z,8
2017-02-28T17:10:46.458Z,8
2017-02-28T17:11:46.435Z,8
2017-02-28T17:12:46.357Z,8
2017-02-28T17:13:46.279Z,8
2017-02-28T17:14:46.242Z,8
2017-02-28T17:15:46.186Z,8
2017-02-28T17:16:46.088Z,8
2017-02-28T17:17:46.025Z,8
2017-02-28T17:18:45.957Z,8
2017-02-28T17:19:45.898Z,8
2017-02-28T17:20:45.839Z,8
2017-02-28T17:21:45.793Z,8
2017-02-28T17:22:45.723Z,8
2017-02-28T17:23:45.282Z,8
2017-02-28T17:24:45.603Z,8
2017-02-28T17:25:45.546Z,8
2017-02-28T17:26:45.473Z,8
2017-02-28T17:27:45.406Z,8
2017-02-28T17:28:45.366Z,8
2017-02-28T17:29:45.296Z,8
2017-02-28T17:30:45.231Z,8
2017-02-28T17:31:44.777Z,8
2017-02-28T17:32:45.109Z,8
2017-02-28T17:33:45.049Z,8
2017-02-28T17:34:44.979Z,8
2017-02-28T17:35:45.257Z,8
2017-02-28T17:36:44.867Z,8
2017-02-28T17:37:44.415Z,8
2017-02-28T17:38:44.769Z,8
2017-02-28T17:39:44.670Z,8
2017-02-28T17:40:44.756Z,4
2017-02-28T17:41:44.554Z,4
2017-02-28T17:42:44.477Z,4
2017-02-28T17:43:44.416Z,4
2017-02-28T17:44:44.378Z,4
2017-02-28T17:45:44.449Z,4
2017-02-28T17:46:44.230Z,4
2017-02-28T17:47:44.163Z,4
2017-02-28T17:48:44.128Z,4
2017-02-28T17:49:43.673Z,4
2017-02-28T17:50:43.980Z,4
2017-02-28T17:51:43.920Z,4
2017-02-28T17:52:43.895Z,4
2017-02-28T17:53:43.806Z,4
2017-02-28T17:54:43.737Z,4
2017-02-28T17:55:43.920Z,4
2017-02-28T17:56:43.609Z,4
2017-02-28T17:57:43.544Z,4
2017-02-28T17:58:43.128Z,4
2017-02-28T17:59:43.057Z,4
2017-02-28T18:00:42.992Z,4
2017-02-28T18:01:43.319Z,4
2017-02-28T18:02:43.244Z,4
2017-02-28T18:03:42.796Z,4
2017-02-28T18:04:42.742Z,4
2017-02-28T18:05:43.050Z,4
2017-02-28T18:06:42.609Z,4
2017-02-28T18:07:42.938Z,4
2017-02-28T18:08:43.071Z,4
2017-02-28T18:09:42.802Z,4
2017-02-28T18:10:43.011Z,4
2017-02-28T18:11:42.690Z,4
2017-02-28T18:12:42.643Z,4
2017-02-28T18:13:42.573Z,4
2017-02-28T18:14:42.525Z,4
2017-02-28T18:15:42.454Z,4
2017-02-28T18:16:42.392Z,4
2017-02-28T18:17:42.305Z,4
2017-02-28T18:18:42.279Z,4
2017-02-28T18:19:42.191Z,4
2017-02-28T18:20:42.137Z,4
2017-02-28T18:21:42.057Z,4
2017-02-28T18:22:41.997Z,4
2017-02-28T18:23:41.948Z,4
2017-02-28T18:24:41.883Z,4
2017-02-28T18:25:41.447Z,4
2017-02-28T18:26:41.753Z,4
2017-02-28T18:27:41.698Z,4
2017-02-28T18:28:41.666Z,4
2017-02-28T18:29:41.584Z,4
2017-02-28T18:30:41.542Z,4
2017-02-28T18:31:41.445Z,4
2017-02-28T18:32:41.375Z,4
2017-02-28T18:33:40.948Z,4
2017-02-28T18:34:41.259Z,4
2017-02-28T18:35:41.188Z,4
2017-02-28T18:36:41.135Z,4
2017-02-28T18:37:41.078Z,4
2017-02-28T18:38:41.023Z,4
2017-02-28T18:39:40.952Z,4
2017-02-28T18:40:40.880Z,4
2017-02-28T18:41:40.817Z,4
2017-02-28T18:42:40.408Z,4
2017-02-28T18:43:40.726Z,4
2017-02-28T18:44:40.655Z,4
2017-02-28T18:45:40.591Z,4
2017-02-28T18:46:40.524Z,4
2017-02-28T18:47:40.479Z,4
2017-02-28T18:48:40.384Z,4
2017-02-28T18:49:40.332Z,4
2017-02-28T18:50:40.276Z,4
2017-02-28T18:51:40.207Z,4
2017-02-28T18:52:40.154Z,4
2017-02-28T18:53:40.082Z,4
2017-02-28T18:54:40.021Z,4
2017-02-28T18:55:39.971Z,4
2017-02-28T18:56:39.922Z,4
2017-02-28T18:57:39.839Z,4
2017-02-28T18:58:39.763Z,4
2017-02-28T18:59:39.740Z,4
2017-02-28T19:00:39.650Z,4
2017-02-28T19:01:39.214Z,4
2017-02-28T19:02:39.516Z,4
2017-02-28T19:03:39.457Z,4
2017-02-28T19:04:39.401Z,4
2017-02-28T19:05:39.344Z,4
2017-02-28T19:06:39.272Z,4
2017-02-28T19:07:39.218Z,4
2017-02-28T19:08:39.172Z,4
2017-02-28T19:09:39.078Z,4
2017-02-28T19:10:39.055Z,4
2017-02-28T19:11:38.992Z,4
2017-02-28T19:12:38.905Z,4
2017-02-28T19:13:38.837Z,4
2017-02-28T19:14:38.801Z,8
2017-02-28T19:15:38.815Z,8
2017-02-28T19:16:38.655Z,8
2017-02-28T19:17:38.589Z,8
2017-02-28T19:18:38.540Z,8
2017-02-28T19:19:38.463Z,8
2017-02-28T19:20:38.507Z,8
2017-02-28T19:21:38.373Z,8
2017-02-28T19:22:38.285Z,8
2017-02-28T19:23:38.214Z,8